Agnew, Washington
Current Conditions -  °F | °C
As of 2:07 AM on Sunday 25 Jan 2015 (Local Time) from KCLM Reporting Station
Overcast Overcast  
Wind Chill: 12°   Ceiling: 900
Heat Index: 12°   Visibility: 10mi
Dew Point: 10°   Wind: 0mph
Humidity: 89%   Direction: NA
Pressure: 30.19"   Gusts: NA
Location:  48.0203°N, 123.478°W
Report Text: KCLM 251007Z AUTO 00000KT 10SM BKN009 BKN014 OVC027 12/10 A3019 RMK AO2 T01170100 $
Loading
Personal Weather Stations






























Interactive Weather Map New forecast layout! Learn more

10-Day Weather Forecast

Advertisements
Track Severe Weather on mobile